Terminal Aerodrome Forecast
Issued by NWS

Home | Current Version | Previous Version | Text Only | Print | Product List | Glossary On
Versions: 1 2 3 4 5 6 7 8 9 10 11 12 13 14 15 16 17 18 19 20 21 22 23 24 25 26 27
000
FTPA31 PHFO 172300
TAFMKK
TAF
PHMK 172330Z 1800/1824 05012G20KT P6SM FEW030 SCT050
     FM180500 05010KT P6SM FEW030 SCT050
     FM181500 05010KT P6SM VCSH SCT025 BKN045
     FM182000 05014G20KT P6SM VCSH SCT035 BKN045=

USA.gov is the U.S. government's official web portal to all federal, state and local government web resources and services.